sensor_id;sensor_type;location;lat;lon;timestamp;P1;durP1;ratioP1;P2;durP2;ratioP2
40951;SDS011;26682;51.660;19.338;2022-10-16T00:00:12;17.48;;;11.93;;
40951;SDS011;26682;51.660;19.338;2022-10-16T00:02:18;18.98;;;11.77;;
40951;SDS011;26682;51.660;19.338;2022-10-16T00:04:04;19.20;;;13.38;;
40951;SDS011;26682;51.660;19.338;2022-10-16T00:05:50;19.65;;;12.05;;
40951;SDS011;26682;51.660;19.338;2022-10-16T00:07:36;21.67;;;13.10;;
40951;SDS011;26682;51.660;19.338;2022-10-16T00:09:22;16.80;;;12.13;;
40951;SDS011;26682;51.660;19.338;2022-10-16T00:11:12;16.02;;;12.05;;
40951;SDS011;26682;51.660;19.338;2022-10-16T00:13:03;18.63;;;12.25;;
40951;SDS011;26682;51.660;19.338;2022-10-16T00:14:50;21.83;;;12.05;;
40951;SDS011;26682;51.660;19.338;2022-10-16T00:16:36;18.25;;;11.80;;
40951;SDS011;26682;51.660;19.338;2022-10-16T00:18:22;19.67;;;12.55;;
40951;SDS011;26682;51.660;19.338;2022-10-16T00:20:09;15.15;;;11.85;;
40951;SDS011;26682;51.660;19.338;2022-10-16T00:21:55;16.00;;;12.43;;
40951;SDS011;26682;51.660;19.338;2022-10-16T00:23:41;22.33;;;14.38;;
40951;SDS011;26682;51.660;19.338;2022-10-16T00:25:27;21.08;;;12.75;;
40951;SDS011;26682;51.660;19.338;2022-10-16T00:27:13;19.00;;;13.48;;
40951;SDS011;26682;51.660;19.338;2022-10-16T00:28:59;19.17;;;12.02;;
40951;SDS011;26682;51.660;19.338;2022-10-16T00:30:46;19.05;;;13.30;;
40951;SDS011;26682;51.660;19.338;2022-10-16T00:32:31;17.15;;;12.93;;
40951;SDS011;26682;51.660;19.338;2022-10-16T00:34:17;17.45;;;12.70;;
40951;SDS011;26682;51.660;19.338;2022-10-16T00:36:04;17.73;;;12.93;;
40951;SDS011;26682;51.660;19.338;2022-10-16T00:37:52;16.27;;;12.10;;
40951;SDS011;26682;51.660;19.338;2022-10-16T00:39:38;15.45;;;11.98;;
40951;SDS011;26682;51.660;19.338;2022-10-16T00:41:24;14.10;;;12.07;;
40951;SDS011;26682;51.660;19.338;2022-10-16T00:43:12;14.03;;;11.53;;
40951;SDS011;26682;51.660;19.338;2022-10-16T00:45:19;28.50;;;16.90;;
40951;SDS011;26682;51.660;19.338;2022-10-16T00:47:05;49.92;;;25.65;;
40951;SDS011;26682;51.660;19.338;2022-10-16T00:49:00;63.88;;;32.33;;
40951;SDS011;26682;51.660;19.338;2022-10-16T00:50:51;37.67;;;21.80;;
40951;SDS011;26682;51.660;19.338;2022-10-16T00:52:39;32.78;;;18.02;;
40951;SDS011;26682;51.660;19.338;2022-10-16T00:54:29;25.60;;;15.77;;
40951;SDS011;26682;51.660;19.338;2022-10-16T00:56:17;29.65;;;17.08;;
40951;SDS011;26682;51.660;19.338;2022-10-16T00:58:03;22.98;;;16.63;;
40951;SDS011;26682;51.660;19.338;2022-10-16T00:59:50;19.20;;;15.25;;
40951;SDS011;26682;51.660;19.338;2022-10-16T01:01:36;21.92;;;18.38;;
40951;SDS011;26682;51.660;19.338;2022-10-16T01:03:24;23.25;;;16.83;;
40951;SDS011;26682;51.660;19.338;2022-10-16T01:05:11;17.63;;;15.60;;
40951;SDS011;26682;51.660;19.338;2022-10-16T01:08:56;21.27;;;15.90;;
40951;SDS011;26682;51.660;19.338;2022-10-16T01:11:36;18.35;;;13.30;;
40951;SDS011;26682;51.660;19.338;2022-10-16T01:13:38;15.03;;;13.43;;
40951;SDS011;26682;51.660;19.338;2022-10-16T01:15:34;14.63;;;13.02;;
40951;SDS011;26682;51.660;19.338;2022-10-16T01:17:41;17.38;;;13.02;;
40951;SDS011;26682;51.660;19.338;2022-10-16T01:21:48;18.08;;;13.15;;
40951;SDS011;26682;51.660;19.338;2022-10-16T01:27:46;17.25;;;12.75;;
40951;SDS011;26682;51.660;19.338;2022-10-16T01:31:24;18.70;;;12.68;;
40951;SDS011;26682;51.660;19.338;2022-10-16T01:33:21;16.00;;;12.85;;
40951;SDS011;26682;51.660;19.338;2022-10-16T01:35:20;19.55;;;14.15;;
40951;SDS011;26682;51.660;19.338;2022-10-16T01:37:12;15.80;;;12.25;;
40951;SDS011;26682;51.660;19.338;2022-10-16T01:39:01;15.93;;;12.23;;
40951;SDS011;26682;51.660;19.338;2022-10-16T01:40:50;17.70;;;12.68;;
40951;SDS011;26682;51.660;19.338;2022-10-16T01:42:42;14.85;;;11.52;;
40951;SDS011;26682;51.660;19.338;2022-10-16T01:44:33;14.63;;;12.85;;
40951;SDS011;26682;51.660;19.338;2022-10-16T01:46:21;14.05;;;12.02;;
40951;SDS011;26682;51.660;19.338;2022-10-16T01:48:09;15.50;;;12.95;;
40951;SDS011;26682;51.660;19.338;2022-10-16T01:49:57;16.83;;;13.73;;
40951;SDS011;26682;51.660;19.338;2022-10-16T01:51:45;14.20;;;12.02;;
40951;SDS011;26682;51.660;19.338;2022-10-16T01:53:34;15.40;;;12.68;;
40951;SDS011;26682;51.660;19.338;2022-10-16T01:55:24;17.38;;;12.80;;
40951;SDS011;26682;51.660;19.338;2022-10-16T01:57:15;14.27;;;12.77;;
40951;SDS011;26682;51.660;19.338;2022-10-16T01:59:11;14.65;;;12.68;;
40951;SDS011;26682;51.660;19.338;2022-10-16T02:01:01;16.33;;;13.23;;
40951;SDS011;26682;51.660;19.338;2022-10-16T02:02:49;15.88;;;13.43;;
40951;SDS011;26682;51.660;19.338;2022-10-16T02:04:39;16.05;;;13.10;;
40951;SDS011;26682;51.660;19.338;2022-10-16T02:06:32;17.67;;;13.70;;
40951;SDS011;26682;51.660;19.338;2022-10-16T02:08:20;18.07;;;14.23;;
40951;SDS011;26682;51.660;19.338;2022-10-16T02:10:08;17.40;;;14.65;;
40951;SDS011;26682;51.660;19.338;2022-10-16T02:11:54;16.25;;;14.10;;
40951;SDS011;26682;51.660;19.338;2022-10-16T02:13:55;19.30;;;14.40;;
40951;SDS011;26682;51.660;19.338;2022-10-16T02:15:48;18.08;;;13.88;;
40951;SDS011;26682;51.660;19.338;2022-10-16T02:17:34;17.67;;;13.80;;
40951;SDS011;26682;51.660;19.338;2022-10-16T02:19:20;20.40;;;13.93;;
40951;SDS011;26682;51.660;19.338;2022-10-16T02:21:10;21.13;;;13.50;;
40951;SDS011;26682;51.660;19.338;2022-10-16T02:23:07;17.83;;;13.85;;
40951;SDS011;26682;51.660;19.338;2022-10-16T02:27:06;18.40;;;14.50;;
40951;SDS011;26682;51.660;19.338;2022-10-16T02:28:59;18.42;;;15.05;;
40951;SDS011;26682;51.660;19.338;2022-10-16T02:30:50;21.30;;;16.55;;
40951;SDS011;26682;51.660;19.338;2022-10-16T02:32:47;19.52;;;15.65;;
40951;SDS011;26682;51.660;19.338;2022-10-16T02:36:21;20.15;;;16.20;;
40951;SDS011;26682;51.660;19.338;2022-10-16T02:38:08;21.80;;;15.98;;
40951;SDS011;26682;51.660;19.338;2022-10-16T02:39:56;22.50;;;17.38;;
40951;SDS011;26682;51.660;19.338;2022-10-16T02:41:43;22.92;;;17.42;;
40951;SDS011;26682;51.660;19.338;2022-10-16T02:43:29;26.23;;;17.38;;
40951;SDS011;26682;51.660;19.338;2022-10-16T02:45:15;23.27;;;17.58;;
40951;SDS011;26682;51.660;19.338;2022-10-16T02:47:02;21.43;;;17.63;;
40951;SDS011;26682;51.660;19.338;2022-10-16T02:48:48;21.38;;;17.33;;
40951;SDS011;26682;51.660;19.338;2022-10-16T02:50:34;25.10;;;18.00;;
40951;SDS011;26682;51.660;19.338;2022-10-16T02:52:20;22.98;;;18.02;;
40951;SDS011;26682;51.660;19.338;2022-10-16T02:54:06;24.00;;;17.83;;
40951;SDS011;26682;51.660;19.338;2022-10-16T02:55:52;24.90;;;17.90;;
40951;SDS011;26682;51.660;19.338;2022-10-16T02:57:38;24.50;;;18.25;;
40951;SDS011;26682;51.660;19.338;2022-10-16T02:59:25;29.42;;;21.38;;
40951;SDS011;26682;51.660;19.338;2022-10-16T03:01:11;25.75;;;20.42;;
40951;SDS011;26682;51.660;19.338;2022-10-16T03:02:57;22.80;;;19.25;;
40951;SDS011;26682;51.660;19.338;2022-10-16T03:04:43;26.02;;;20.80;;
40951;SDS011;26682;51.660;19.338;2022-10-16T03:06:29;27.35;;;20.15;;
40951;SDS011;26682;51.660;19.338;2022-10-16T03:08:15;22.60;;;18.05;;
40951;SDS011;26682;51.660;19.338;2022-10-16T03:10:01;21.95;;;17.50;;
40951;SDS011;26682;51.660;19.338;2022-10-16T03:11:48;20.73;;;17.17;;
40951;SDS011;26682;51.660;19.338;2022-10-16T03:13:34;23.25;;;18.63;;
40951;SDS011;26682;51.660;19.338;2022-10-16T03:15:19;25.27;;;18.67;;
40951;SDS011;26682;51.660;19.338;2022-10-16T03:17:06;25.02;;;17.38;;
40951;SDS011;26682;51.660;19.338;2022-10-16T03:18:51;22.45;;;17.80;;
40951;SDS011;26682;51.660;19.338;2022-10-16T03:20:37;23.00;;;17.88;;
40951;SDS011;26682;51.660;19.338;2022-10-16T03:22:23;21.02;;;18.65;;
40951;SDS011;26682;51.660;19.338;2022-10-16T03:24:09;22.27;;;18.52;;
40951;SDS011;26682;51.660;19.338;2022-10-16T03:25:55;22.00;;;17.17;;
40951;SDS011;26682;51.660;19.338;2022-10-16T03:27:41;20.98;;;16.77;;
40951;SDS011;26682;51.660;19.338;2022-10-16T03:29:27;24.60;;;18.02;;
40951;SDS011;26682;51.660;19.338;2022-10-16T03:31:14;20.90;;;17.60;;
40951;SDS011;26682;51.660;19.338;2022-10-16T03:33:00;23.55;;;17.02;;
40951;SDS011;26682;51.660;19.338;2022-10-16T03:34:46;23.05;;;16.52;;
40951;SDS011;26682;51.660;19.338;2022-10-16T03:36:32;23.88;;;17.17;;
40951;SDS011;26682;51.660;19.338;2022-10-16T03:38:18;59.13;;;31.92;;
40951;SDS011;26682;51.660;19.338;2022-10-16T03:40:04;45.00;;;26.98;;
40951;SDS011;26682;51.660;19.338;2022-10-16T03:41:50;30.02;;;20.73;;
40951;SDS011;26682;51.660;19.338;2022-10-16T03:43:36;24.92;;;18.63;;
40951;SDS011;26682;51.660;19.338;2022-10-16T03:45:22;26.25;;;18.73;;
40951;SDS011;26682;51.660;19.338;2022-10-16T03:47:08;22.67;;;17.48;;
40951;SDS011;26682;51.660;19.338;2022-10-16T03:48:54;19.65;;;16.83;;
40951;SDS011;26682;51.660;19.338;2022-10-16T03:50:40;21.23;;;17.88;;
40951;SDS011;26682;51.660;19.338;2022-10-16T03:52:26;26.55;;;17.42;;
40951;SDS011;26682;51.660;19.338;2022-10-16T03:54:13;21.10;;;17.25;;
40951;SDS011;26682;51.660;19.338;2022-10-16T03:55:58;21.05;;;17.17;;
40951;SDS011;26682;51.660;19.338;2022-10-16T03:57:45;22.95;;;17.30;;
40951;SDS011;26682;51.660;19.338;2022-10-16T03:59:31;21.30;;;17.38;;
40951;SDS011;26682;51.660;19.338;2022-10-16T04:01:17;21.88;;;17.77;;
40951;SDS011;26682;51.660;19.338;2022-10-16T04:03:04;23.55;;;18.33;;
40951;SDS011;26682;51.660;19.338;2022-10-16T04:04:50;20.52;;;17.70;;
40951;SDS011;26682;51.660;19.338;2022-10-16T04:06:36;20.33;;;17.63;;
40951;SDS011;26682;51.660;19.338;2022-10-16T04:08:22;22.50;;;17.70;;
40951;SDS011;26682;51.660;19.338;2022-10-16T04:10:08;24.23;;;18.80;;
40951;SDS011;26682;51.660;19.338;2022-10-16T04:11:54;19.50;;;17.40;;
40951;SDS011;26682;51.660;19.338;2022-10-16T04:13:40;23.38;;;17.73;;
40951;SDS011;26682;51.660;19.338;2022-10-16T04:15:27;20.98;;;17.92;;
40951;SDS011;26682;51.660;19.338;2022-10-16T04:17:12;21.88;;;17.58;;
40951;SDS011;26682;51.660;19.338;2022-10-16T04:18:58;22.92;;;17.85;;
40951;SDS011;26682;51.660;19.338;2022-10-16T04:20:44;22.83;;;16.98;;
40951;SDS011;26682;51.660;19.338;2022-10-16T04:22:30;22.80;;;17.98;;
40951;SDS011;26682;51.660;19.338;2022-10-16T04:24:16;24.38;;;17.63;;
40951;SDS011;26682;51.660;19.338;2022-10-16T04:26:02;31.23;;;19.73;;
40951;SDS011;26682;51.660;19.338;2022-10-16T04:27:48;31.00;;;20.20;;
40951;SDS011;26682;51.660;19.338;2022-10-16T04:29:34;31.52;;;19.60;;
40951;SDS011;26682;51.660;19.338;2022-10-16T04:31:20;21.15;;;16.75;;
40951;SDS011;26682;51.660;19.338;2022-10-16T04:33:07;23.65;;;16.63;;
40951;SDS011;26682;51.660;19.338;2022-10-16T04:34:54;22.23;;;17.52;;
40951;SDS011;26682;51.660;19.338;2022-10-16T04:36:40;21.98;;;17.00;;
40951;SDS011;26682;51.660;19.338;2022-10-16T04:38:26;20.38;;;17.23;;
40951;SDS011;26682;51.660;19.338;2022-10-16T04:40:13;23.35;;;16.85;;
40951;SDS011;26682;51.660;19.338;2022-10-16T04:42:00;20.27;;;17.10;;
40951;SDS011;26682;51.660;19.338;2022-10-16T04:43:45;20.60;;;17.35;;
40951;SDS011;26682;51.660;19.338;2022-10-16T04:45:31;21.25;;;18.65;;
40951;SDS011;26682;51.660;19.338;2022-10-16T04:47:17;22.27;;;16.40;;
40951;SDS011;26682;51.660;19.338;2022-10-16T04:49:03;22.55;;;17.35;;
40951;SDS011;26682;51.660;19.338;2022-10-16T04:50:49;20.33;;;17.23;;
40951;SDS011;26682;51.660;19.338;2022-10-16T04:52:35;21.85;;;16.85;;
40951;SDS011;26682;51.660;19.338;2022-10-16T04:54:21;20.98;;;16.95;;
40951;SDS011;26682;51.660;19.338;2022-10-16T04:56:07;20.48;;;16.80;;
40951;SDS011;26682;51.660;19.338;2022-10-16T04:57:53;20.63;;;17.10;;
40951;SDS011;26682;51.660;19.338;2022-10-16T04:59:40;18.20;;;16.17;;
40951;SDS011;26682;51.660;19.338;2022-10-16T05:01:44;22.33;;;16.98;;
40951;SDS011;26682;51.660;19.338;2022-10-16T05:03:30;22.40;;;17.08;;
40951;SDS011;26682;51.660;19.338;2022-10-16T05:05:16;18.40;;;16.45;;
40951;SDS011;26682;51.660;19.338;2022-10-16T05:07:04;21.05;;;16.85;;
40951;SDS011;26682;51.660;19.338;2022-10-16T05:08:50;20.80;;;16.80;;
40951;SDS011;26682;51.660;19.338;2022-10-16T05:10:36;22.27;;;16.90;;
40951;SDS011;26682;51.660;19.338;2022-10-16T05:12:22;22.10;;;16.30;;
40951;SDS011;26682;51.660;19.338;2022-10-16T05:14:08;25.52;;;16.70;;
40951;SDS011;26682;51.660;19.338;2022-10-16T05:15:54;18.92;;;16.23;;
40951;SDS011;26682;51.660;19.338;2022-10-16T05:17:40;20.25;;;17.40;;
40951;SDS011;26682;51.660;19.338;2022-10-16T05:19:26;21.23;;;17.90;;
40951;SDS011;26682;51.660;19.338;2022-10-16T05:21:12;20.67;;;16.63;;
40951;SDS011;26682;51.660;19.338;2022-10-16T05:22:58;19.45;;;16.13;;
40951;SDS011;26682;51.660;19.338;2022-10-16T05:24:44;19.25;;;16.60;;
40951;SDS011;26682;51.660;19.338;2022-10-16T05:26:30;23.45;;;16.13;;
40951;SDS011;26682;51.660;19.338;2022-10-16T05:28:16;19.23;;;16.50;;
40951;SDS011;26682;51.660;19.338;2022-10-16T05:30:02;24.15;;;16.45;;
40951;SDS011;26682;51.660;19.338;2022-10-16T05:31:51;22.40;;;16.67;;
40951;SDS011;26682;51.660;19.338;2022-10-16T05:33:38;21.15;;;15.73;;
40951;SDS011;26682;51.660;19.338;2022-10-16T05:35:24;29.13;;;21.60;;
40951;SDS011;26682;51.660;19.338;2022-10-16T05:37:10;33.42;;;25.13;;
40951;SDS011;26682;51.660;19.338;2022-10-16T05:38:56;26.90;;;21.13;;
40951;SDS011;26682;51.660;19.338;2022-10-16T05:40:42;20.88;;;18.60;;
40951;SDS011;26682;51.660;19.338;2022-10-16T05:42:29;20.05;;;17.98;;
40951;SDS011;26682;51.660;19.338;2022-10-16T05:44:15;19.35;;;15.73;;
40951;SDS011;26682;51.660;19.338;2022-10-16T05:46:03;23.05;;;17.58;;
40951;SDS011;26682;51.660;19.338;2022-10-16T05:47:50;28.00;;;19.52;;
40951;SDS011;26682;51.660;19.338;2022-10-16T05:49:36;26.50;;;20.67;;
40951;SDS011;26682;51.660;19.338;2022-10-16T05:51:23;19.58;;;17.48;;
40951;SDS011;26682;51.660;19.338;2022-10-16T05:53:09;21.25;;;17.73;;
40951;SDS011;26682;51.660;19.338;2022-10-16T05:54:55;21.52;;;16.83;;
40951;SDS011;26682;51.660;19.338;2022-10-16T05:56:41;25.55;;;19.77;;
40951;SDS011;26682;51.660;19.338;2022-10-16T05:58:28;24.75;;;22.08;;
40951;SDS011;26682;51.660;19.338;2022-10-16T06:00:16;21.20;;;16.67;;
40951;SDS011;26682;51.660;19.338;2022-10-16T06:02:02;30.55;;;22.13;;
40951;SDS011;26682;51.660;19.338;2022-10-16T06:03:48;23.13;;;18.98;;
40951;SDS011;26682;51.660;19.338;2022-10-16T06:05:36;19.58;;;17.48;;
40951;SDS011;26682;51.660;19.338;2022-10-16T06:07:22;20.13;;;16.85;;
40951;SDS011;26682;51.660;19.338;2022-10-16T06:09:09;18.50;;;16.50;;
40951;SDS011;26682;51.660;19.338;2022-10-16T06:11:02;17.25;;;15.45;;
40951;SDS011;26682;51.660;19.338;2022-10-16T06:12:49;20.05;;;17.95;;
40951;SDS011;26682;51.660;19.338;2022-10-16T06:14:35;18.67;;;15.95;;
40951;SDS011;26682;51.660;19.338;2022-10-16T06:16:22;22.00;;;17.30;;
40951;SDS011;26682;51.660;19.338;2022-10-16T06:18:09;26.33;;;20.45;;
40951;SDS011;26682;51.660;19.338;2022-10-16T06:19:55;29.33;;;20.50;;
40951;SDS011;26682;51.660;19.338;2022-10-16T06:21:40;19.05;;;16.55;;
40951;SDS011;26682;51.660;19.338;2022-10-16T06:23:27;32.78;;;24.67;;
40951;SDS011;26682;51.660;19.338;2022-10-16T06:25:14;47.60;;;35.10;;
40951;SDS011;26682;51.660;19.338;2022-10-16T06:27:00;41.58;;;30.92;;
40951;SDS011;26682;51.660;19.338;2022-10-16T06:28:46;27.30;;;22.80;;
40951;SDS011;26682;51.660;19.338;2022-10-16T06:30:32;25.10;;;20.33;;
40951;SDS011;26682;51.660;19.338;2022-10-16T06:32:18;23.52;;;19.52;;
40951;SDS011;26682;51.660;19.338;2022-10-16T06:34:04;22.90;;;18.70;;
40951;SDS011;26682;51.660;19.338;2022-10-16T06:35:59;18.27;;;16.05;;
40951;SDS011;26682;51.660;19.338;2022-10-16T06:37:46;18.88;;;15.77;;
40951;SDS011;26682;51.660;19.338;2022-10-16T06:39:32;18.27;;;15.68;;
40951;SDS011;26682;51.660;19.338;2022-10-16T06:41:19;16.45;;;14.38;;
40951;SDS011;26682;51.660;19.338;2022-10-16T06:44:52;16.05;;;13.10;;
40951;SDS011;26682;51.660;19.338;2022-10-16T06:46:38;16.63;;;13.48;;
40951;SDS011;26682;51.660;19.338;2022-10-16T06:48:24;15.63;;;13.32;;
40951;SDS011;26682;51.660;19.338;2022-10-16T06:50:11;17.77;;;13.05;;
40951;SDS011;26682;51.660;19.338;2022-10-16T06:51:57;16.25;;;14.02;;
40951;SDS011;26682;51.660;19.338;2022-10-16T06:53:45;16.02;;;13.18;;
40951;SDS011;26682;51.660;19.338;2022-10-16T06:55:34;17.25;;;13.95;;
40951;SDS011;26682;51.660;19.338;2022-10-16T06:57:23;16.33;;;14.55;;
40951;SDS011;26682;51.660;19.338;2022-10-16T06:59:10;18.80;;;14.25;;
40951;SDS011;26682;51.660;19.338;2022-10-16T07:00:59;14.90;;;13.40;;
40951;SDS011;26682;51.660;19.338;2022-10-16T07:02:49;18.23;;;13.68;;
40951;SDS011;26682;51.660;19.338;2022-10-16T07:04:38;16.40;;;13.73;;
40951;SDS011;26682;51.660;19.338;2022-10-16T07:06:25;15.07;;;13.45;;
40951;SDS011;26682;51.660;19.338;2022-10-16T07:08:12;15.88;;;14.27;;
40951;SDS011;26682;51.660;19.338;2022-10-16T07:09:58;18.45;;;16.48;;
40951;SDS011;26682;51.660;19.338;2022-10-16T07:11:45;17.23;;;15.45;;
40951;SDS011;26682;51.660;19.338;2022-10-16T07:13:38;19.33;;;16.42;;
40951;SDS011;26682;51.660;19.338;2022-10-16T07:15:26;18.10;;;14.77;;
40951;SDS011;26682;51.660;19.338;2022-10-16T07:17:12;16.73;;;14.93;;
40951;SDS011;26682;51.660;19.338;2022-10-16T07:18:59;18.83;;;15.25;;
40951;SDS011;26682;51.660;19.338;2022-10-16T07:20:46;20.67;;;16.75;;
40951;SDS011;26682;51.660;19.338;2022-10-16T07:22:33;17.50;;;15.50;;
40951;SDS011;26682;51.660;19.338;2022-10-16T07:24:19;26.23;;;14.77;;
40951;SDS011;26682;51.660;19.338;2022-10-16T07:26:05;18.15;;;14.60;;
40951;SDS011;26682;51.660;19.338;2022-10-16T07:27:52;17.20;;;14.60;;
40951;SDS011;26682;51.660;19.338;2022-10-16T07:29:41;16.13;;;14.02;;
40951;SDS011;26682;51.660;19.338;2022-10-16T07:31:30;19.27;;;15.65;;
40951;SDS011;26682;51.660;19.338;2022-10-16T07:33:17;14.93;;;13.43;;
40951;SDS011;26682;51.660;19.338;2022-10-16T07:35:03;16.80;;;15.07;;
40951;SDS011;26682;51.660;19.338;2022-10-16T07:36:50;22.83;;;14.53;;
40951;SDS011;26682;51.660;19.338;2022-10-16T07:38:37;16.27;;;13.50;;
40951;SDS011;26682;51.660;19.338;2022-10-16T07:40:23;17.63;;;13.85;;
40951;SDS011;26682;51.660;19.338;2022-10-16T07:42:12;16.33;;;14.63;;
40951;SDS011;26682;51.660;19.338;2022-10-16T07:43:58;20.35;;;15.57;;
40951;SDS011;26682;51.660;19.338;2022-10-16T07:45:46;18.98;;;15.40;;
40951;SDS011;26682;51.660;19.338;2022-10-16T07:47:34;17.45;;;15.57;;
40951;SDS011;26682;51.660;19.338;2022-10-16T07:49:21;16.67;;;14.82;;
40951;SDS011;26682;51.660;19.338;2022-10-16T07:51:07;17.92;;;15.20;;
40951;SDS011;26682;51.660;19.338;2022-10-16T07:53:00;18.65;;;14.15;;
40951;SDS011;26682;51.660;19.338;2022-10-16T07:54:57;17.40;;;13.90;;
40951;SDS011;26682;51.660;19.338;2022-10-16T07:56:42;16.98;;;13.82;;
40951;SDS011;26682;51.660;19.338;2022-10-16T07:58:28;16.42;;;14.23;;
40951;SDS011;26682;51.660;19.338;2022-10-16T08:00:15;16.70;;;14.88;;
40951;SDS011;26682;51.660;19.338;2022-10-16T08:02:01;20.70;;;15.23;;
40951;SDS011;26682;51.660;19.338;2022-10-16T08:03:48;18.60;;;14.70;;
40951;SDS011;26682;51.660;19.338;2022-10-16T08:05:36;22.33;;;14.50;;
40951;SDS011;26682;51.660;19.338;2022-10-16T08:07:22;19.80;;;14.40;;
40951;SDS011;26682;51.660;19.338;2022-10-16T08:09:08;16.58;;;14.73;;
40951;SDS011;26682;51.660;19.338;2022-10-16T08:10:54;16.67;;;14.35;;
40951;SDS011;26682;51.660;19.338;2022-10-16T08:12:40;17.35;;;14.60;;
40951;SDS011;26682;51.660;19.338;2022-10-16T08:14:26;17.17;;;14.13;;
40951;SDS011;26682;51.660;19.338;2022-10-16T08:16:12;15.93;;;14.18;;
40951;SDS011;26682;51.660;19.338;2022-10-16T08:17:59;16.48;;;14.10;;
40951;SDS011;26682;51.660;19.338;2022-10-16T08:19:46;16.45;;;13.45;;
40951;SDS011;26682;51.660;19.338;2022-10-16T08:21:33;16.20;;;13.80;;
40951;SDS011;26682;51.660;19.338;2022-10-16T08:23:19;15.90;;;14.25;;
40951;SDS011;26682;51.660;19.338;2022-10-16T08:25:05;15.38;;;13.75;;
40951;SDS011;26682;51.660;19.338;2022-10-16T08:26:55;17.17;;;14.60;;
40951;SDS011;26682;51.660;19.338;2022-10-16T08:28:43;16.50;;;14.25;;
40951;SDS011;26682;51.660;19.338;2022-10-16T08:30:30;16.13;;;14.48;;
40951;SDS011;26682;51.660;19.338;2022-10-16T08:32:16;18.20;;;14.57;;
40951;SDS011;26682;51.660;19.338;2022-10-16T08:34:02;16.90;;;14.43;;
40951;SDS011;26682;51.660;19.338;2022-10-16T08:35:52;20.40;;;15.65;;
40951;SDS011;26682;51.660;19.338;2022-10-16T08:37:39;22.73;;;15.60;;
40951;SDS011;26682;51.660;19.338;2022-10-16T08:39:29;26.13;;;16.85;;
40951;SDS011;26682;51.660;19.338;2022-10-16T08:50:07;41.85;;;24.17;;
40951;SDS011;26682;51.660;19.338;2022-10-16T08:51:55;38.08;;;20.35;;
40951;SDS011;26682;51.660;19.338;2022-10-16T08:53:49;24.58;;;17.25;;
40951;SDS011;26682;51.660;19.338;2022-10-16T08:55:46;20.13;;;16.27;;
40951;SDS011;26682;51.660;19.338;2022-10-16T08:57:36;19.27;;;14.32;;
40951;SDS011;26682;51.660;19.338;2022-10-16T08:59:22;19.90;;;14.18;;
40951;SDS011;26682;51.660;19.338;2022-10-16T09:01:12;16.98;;;14.15;;
40951;SDS011;26682;51.660;19.338;2022-10-16T09:03:03;18.50;;;14.52;;
40951;SDS011;26682;51.660;19.338;2022-10-16T09:05:19;18.52;;;14.68;;
40951;SDS011;26682;51.660;19.338;2022-10-16T09:07:32;19.02;;;14.57;;
40951;SDS011;26682;51.660;19.338;2022-10-16T09:15:38;18.00;;;14.15;;
40951;SDS011;26682;51.660;19.338;2022-10-16T09:19:44;28.88;;;19.67;;
40951;SDS011;26682;51.660;19.338;2022-10-16T09:21:40;19.52;;;15.82;;
40951;SDS011;26682;51.660;19.338;2022-10-16T09:23:29;19.85;;;16.50;;
40951;SDS011;26682;51.660;19.338;2022-10-16T09:25:20;21.95;;;16.67;;
40951;SDS011;26682;51.660;19.338;2022-10-16T09:27:10;26.55;;;22.10;;
40951;SDS011;26682;51.660;19.338;2022-10-16T09:28:59;23.23;;;18.23;;
40951;SDS011;26682;51.660;19.338;2022-10-16T09:30:46;31.67;;;22.77;;
40951;SDS011;26682;51.660;19.338;2022-10-16T09:32:37;85.68;;;25.02;;
40951;SDS011;26682;51.660;19.338;2022-10-16T09:34:27;27.00;;;18.10;;
40951;SDS011;26682;51.660;19.338;2022-10-16T09:36:18;20.77;;;15.20;;
40951;SDS011;26682;51.660;19.338;2022-10-16T09:38:06;20.50;;;18.25;;
40951;SDS011;26682;51.660;19.338;2022-10-16T09:39:53;18.35;;;16.10;;
40951;SDS011;26682;51.660;19.338;2022-10-16T09:41:43;20.90;;;15.15;;
40951;SDS011;26682;51.660;19.338;2022-10-16T09:45:22;14.88;;;13.27;;
40951;SDS011;26682;51.660;19.338;2022-10-16T09:47:28;18.83;;;14.60;;
40951;SDS011;26682;51.660;19.338;2022-10-16T09:49:22;16.85;;;13.63;;
40951;SDS011;26682;51.660;19.338;2022-10-16T09:51:30;17.73;;;13.55;;
40951;SDS011;26682;51.660;19.338;2022-10-16T09:53:17;15.40;;;13.60;;
40951;SDS011;26682;51.660;19.338;2022-10-16T09:55:15;16.38;;;13.55;;
40951;SDS011;26682;51.660;19.338;2022-10-16T09:57:06;14.73;;;13.07;;
40951;SDS011;26682;51.660;19.338;2022-10-16T09:58:54;15.68;;;13.13;;
40951;SDS011;26682;51.660;19.338;2022-10-16T10:00:41;15.38;;;13.45;;
40951;SDS011;26682;51.660;19.338;2022-10-16T10:02:35;14.30;;;12.60;;
40951;SDS011;26682;51.660;19.338;2022-10-16T10:04:25;16.40;;;12.88;;
40951;SDS011;26682;51.660;19.338;2022-10-16T10:06:27;16.15;;;13.25;;
40951;SDS011;26682;51.660;19.338;2022-10-16T10:08:16;19.63;;;13.52;;
40951;SDS011;26682;51.660;19.338;2022-10-16T10:10:04;17.08;;;13.85;;
40951;SDS011;26682;51.660;19.338;2022-10-16T10:11:58;20.98;;;12.93;;
40951;SDS011;26682;51.660;19.338;2022-10-16T10:13:46;18.70;;;12.38;;
40951;SDS011;26682;51.660;19.338;2022-10-16T10:15:33;16.88;;;14.02;;
40951;SDS011;26682;51.660;19.338;2022-10-16T10:17:24;18.05;;;12.65;;
40951;SDS011;26682;51.660;19.338;2022-10-16T10:19:22;17.40;;;12.50;;
40951;SDS011;26682;51.660;19.338;2022-10-16T10:21:12;17.50;;;11.68;;
40951;SDS011;26682;51.660;19.338;2022-10-16T10:23:01;22.80;;;12.43;;
40951;SDS011;26682;51.660;19.338;2022-10-16T10:27:08;13.32;;;10.32;;
40951;SDS011;26682;51.660;19.338;2022-10-16T10:37:23;11.40;;;10.20;;
40951;SDS011;26682;51.660;19.338;2022-10-16T10:39:31;21.35;;;13.35;;
40951;SDS011;26682;51.660;19.338;2022-10-16T10:46:09;11.88;;;10.07;;
40951;SDS011;26682;51.660;19.338;2022-10-16T10:48:00;12.23;;;10.48;;
40951;SDS011;26682;51.660;19.338;2022-10-16T11:02:44;10.45;;;8.05;;
40951;SDS011;26682;51.660;19.338;2022-10-16T11:05:08;9.32;;;7.85;;
40951;SDS011;26682;51.660;19.338;2022-10-16T11:07:30;9.23;;;7.50;;
40951;SDS011;26682;51.660;19.338;2022-10-16T11:09:23;10.07;;;8.35;;
40951;SDS011;26682;51.660;19.338;2022-10-16T11:11:18;13.85;;;8.65;;
40951;SDS011;26682;51.660;19.338;2022-10-16T11:13:18;10.90;;;7.75;;
40951;SDS011;26682;51.660;19.338;2022-10-16T11:15:28;9.73;;;7.63;;
40951;SDS011;26682;51.660;19.338;2022-10-16T11:17:40;8.82;;;7.18;;
40951;SDS011;26682;51.660;19.338;2022-10-16T11:21:36;12.90;;;11.13;;
40951;SDS011;26682;51.660;19.338;2022-10-16T11:26:16;9.45;;;6.60;;
40951;SDS011;26682;51.660;19.338;2022-10-16T11:28:16;10.18;;;7.00;;
40951;SDS011;26682;51.660;19.338;2022-10-16T11:30:17;7.18;;;6.47;;
40951;SDS011;26682;51.660;19.338;2022-10-16T11:32:18;10.95;;;6.47;;
40951;SDS011;26682;51.660;19.338;2022-10-16T11:34:13;9.57;;;6.75;;
40951;SDS011;26682;51.660;19.338;2022-10-16T11:40:41;9.90;;;7.60;;